North River — WYR2549 — position and weather

sailwx.info

Track history (hours):
 
Tides and Currents Weather Stations Pressure Air Temp Water Temp Dewpoint Dewpoint Depression Visibility Wind Speed Wind Dir Waves Ship Positions

North River

Owner: CITY OF NEW YORK, Brooklyn, NY. More information available from US FCC via Universal Licensing System and Coast Guard Vessel Documentation Center.

Last reported at 2017-May-13 20:14 UTC. Time now 2017-May-25 12:23 UTC.
Position N 40°47' W 073°55'.
Warning: this ship's position is 11 days out of date.

Length 78 m.

Type: Tanker. MMSI: 367074110.

Date/timePositionNaut miles runAvg speedWind from/ knotsBaromVisibWave heightAir tempDewpointWater temp
2017-May-13 20:14N 40°47' W 073°55'1 3.8
2017-May-13 19:55N 40°47' W 073°54'0 0.0
2017-May-13 19:30N 40°47' W 073°54'0 0.0
2017-May-13 19:00N 40°47' W 073°54'0 0.0
2017-May-13 18:29N 40°47' W 073°54'0 0.0
2017-May-13 18:00N 40°47' W 073°54'0 0.0
2017-May-13 17:30N 40°47' W 073°54'0 0.0
2017-May-13 17:00N 40°47' W 073°54'0 0.0
2017-May-13 16:29N 40°47' W 073°54'0 0.0
2017-May-13 15:59N 40°47' W 073°54'0 0.0
2017-May-13 15:30N 40°47' W 073°54'0 0.0
2017-May-13 15:00N 40°47' W 073°54'0 0.0
2017-May-13 14:30N 40°47' W 073°54'0 0.0
2017-May-13 13:30N 40°47' W 073°54'0 0.0
2017-May-13 13:00N 40°47' W 073°54'0 0.0
2017-May-13 12:30N 40°47' W 073°54'1 0.1
2017-May-12 19:21N 40°48' W 073°53'0 0.3
2017-May-12 19:00N 40°48' W 073°53'1 2.3
2017-May-12 18:30N 40°47' W 073°54'0 0.0
2017-May-12 18:00N 40°47' W 073°54'0 0.0
2017-May-12 17:30N 40°47' W 073°54'0 0.0
2017-May-12 17:00N 40°47' W 073°54'0 0.0
2017-May-12 16:30N 40°47' W 073°54'1 2.5
2017-May-12 16:00N 40°48' W 073°53'0 0.0
2017-May-12 15:30N 40°48' W 073°53'0 0.0
2017-May-12 14:54N 40°48' W 073°53'0 0.0
2017-May-12 13:47N 40°48' W 073°53'2 5.5
2017-May-12 13:29N 40°48' W 073°51'1 0.4
2017-May-12 12:03N 40°48' W 073°50'0 0.0
2017-May-12 11:58N 40°48' W 073°50'1 1.8
2017-May-12 11:30N 40°48' W 073°51'1 2.6
2017-May-12 11:00N 40°48' W 073°53'0 0.0
2017-May-11 11:25N 40°48' W 073°53'0 0.0
2017-May-10 15:37N 40°48' W 073°53'1 4.9
2017-May-10 15:31N 40°48' W 073°53'2 3.3
2017-May-10 15:00N 40°48' W 073°50'0 0.0
2017-May-10 14:28N 40°48' W 073°50'0 0.0
2017-May-10 13:30N 40°48' W 073°50'3 6.3
2017-May-10 13:00N 40°48' W 073°54'1 1.1
2017-May-10 12:20N 40°47' W 073°55'0 0.0
2017-May-10 12:00N 40°47' W 073°55'  
2017-May-06 19:53N 40°47' W 073°55'2 1.0
2017-May-06 18:12N 40°48' W 073°53'0 0.0
2017-May-06 17:59N 40°48' W 073°53'0 0.0
2017-May-06 17:21N 40°48' W 073°53'2 5.8
2017-May-06 16:59N 40°47' W 073°55'4 8.9
2017-May-06 16:30N 40°43' W 073°58'2 5.0
2017-May-06 16:00N 40°45' W 074°01'611.0
2017-May-06 15:30N 40°49' W 073°58'0 0.0
2017-May-06 15:00N 40°49' W 073°58'0 0.0
2017-May-06 14:29N 40°49' W 073°58'0 0.1
2017-May-06 13:30N 40°49' W 073°58'5 9.6
2017-May-06 13:00N 40°45' W 074°01'3 5.7
2017-May-06 12:30N 40°43' W 073°58'5 0.2
2017-May-05 14:00N 40°48' W 073°55'3 1.4
2017-May-05 11:40N 40°48' W 073°50'1 3.3
2017-May-05 11:30N 40°48' W 073°51'3 6.5
2017-May-05 11:00N 40°47' W 073°55'0 0.0
2017-May-04 22:06N 40°47' W 073°55'0 0.7
2017-May-04 22:00N 40°47' W 073°55'510.6
2017-May-04 21:31N 40°43' W 073°58'612.5
2017-May-04 21:00N 40°39' W 074°05'2 3.9
2017-May-04 20:30N 40°38' W 074°08'0 0.0
2017-May-04 20:00N 40°38' W 074°08'0 0.0
2017-May-04 19:30N 40°38' W 074°08'0 0.0
2017-May-04 19:00N 40°38' W 074°08'0 0.0
2017-May-04 18:30N 40°38' W 074°08'0 1.0
2017-May-04 18:00N 40°39' W 074°07'511.2
2017-May-04 17:31N 40°41' W 074°01'5 9.1
2017-May-04 17:00N 40°45' W 073°58'4 7.0
2017-May-04 16:29N 40°47' W 073°54'0 0.7
2017-May-04 16:00N 40°47' W 073°54'0 0.0
2017-May-04 15:30N 40°47' W 073°54'0 0.0
2017-May-04 15:00N 40°47' W 073°54'0 0.0
2017-May-04 14:00N 40°47' W 073°54'0 0.0
2017-May-04 13:29N 40°47' W 073°54'0 0.0
2017-May-04 13:00N 40°47' W 073°54'0 0.1
2017-May-04 12:30N 40°47' W 073°53'1 1.4
2017-May-04 11:32N 40°47' W 073°55'  
Track history (hours):
 
Tides and Currents Weather Stations Pressure Air Temp Water Temp Dewpoint Dewpoint Depression Visibility Wind Speed Wind Dir Waves Ship Positions

North River

Owner: CITY OF NEW YORK, Brooklyn, NY. More information available from US FCC via Universal Licensing System and Coast Guard Vessel Documentation Center.

Last reported at 2017-May-13 20:14 UTC. Time now 2017-May-25 12:23 UTC.
Position N 40°47' W 073°55'.
Warning: this ship's position is 11 days out of date.

Length 78 m.

Type: Tanker. MMSI: 367074110.

Date/timePositionNaut miles runAvg speedWind from/ knotsBaromVisibWave heightAir tempDewpointWater temp
2017-May-13 20:14N 40°47' W 073°55'1 3.8
2017-May-13 19:55N 40°47' W 073°54'0 0.0
2017-May-13 19:30N 40°47' W 073°54'0 0.0
2017-May-13 19:00N 40°47' W 073°54'0 0.0
2017-May-13 18:29N 40°47' W 073°54'0 0.0
2017-May-13 18:00N 40°47' W 073°54'0 0.0
2017-May-13 17:30N 40°47' W 073°54'0 0.0
2017-May-13 17:00N 40°47' W 073°54'0 0.0
2017-May-13 16:29N 40°47' W 073°54'0 0.0
2017-May-13 15:59N 40°47' W 073°54'0 0.0
2017-May-13 15:30N 40°47' W 073°54'0 0.0
2017-May-13 15:00N 40°47' W 073°54'0 0.0
2017-May-13 14:30N 40°47' W 073°54'0 0.0
2017-May-13 13:30N 40°47' W 073°54'0 0.0
2017-May-13 13:00N 40°47' W 073°54'0 0.0
2017-May-13 12:30N 40°47' W 073°54'1 0.1
2017-May-12 19:21N 40°48' W 073°53'0 0.3
2017-May-12 19:00N 40°48' W 073°53'1 2.3
2017-May-12 18:30N 40°47' W 073°54'0 0.0
2017-May-12 18:00N 40°47' W 073°54'0 0.0
2017-May-12 17:30N 40°47' W 073°54'0 0.0
2017-May-12 17:00N 40°47' W 073°54'0 0.0
2017-May-12 16:30N 40°47' W 073°54'1 2.5
2017-May-12 16:00N 40°48' W 073°53'0 0.0
2017-May-12 15:30N 40°48' W 073°53'0 0.0
2017-May-12 14:54N 40°48' W 073°53'0 0.0
2017-May-12 13:47N 40°48' W 073°53'2 5.5
2017-May-12 13:29N 40°48' W 073°51'1 0.4
2017-May-12 12:03N 40°48' W 073°50'0 0.0
2017-May-12 11:58N 40°48' W 073°50'1 1.8
2017-May-12 11:30N 40°48' W 073°51'1 2.6
2017-May-12 11:00N 40°48' W 073°53'0 0.0
2017-May-11 11:25N 40°48' W 073°53'0 0.0
2017-May-10 15:37N 40°48' W 073°53'1 4.9
2017-May-10 15:31N 40°48' W 073°53'2 3.3
2017-May-10 15:00N 40°48' W 073°50'0 0.0
2017-May-10 14:28N 40°48' W 073°50'0 0.0
2017-May-10 13:30N 40°48' W 073°50'3 6.3
2017-May-10 13:00N 40°48' W 073°54'1 1.1
2017-May-10 12:20N 40°47' W 073°55'0 0.0
2017-May-10 12:00N 40°47' W 073°55'  
2017-May-06 19:53N 40°47' W 073°55'2 1.0
2017-May-06 18:12N 40°48' W 073°53'0 0.0
2017-May-06 17:59N 40°48' W 073°53'0 0.0
2017-May-06 17:21N 40°48' W 073°53'2 5.8
2017-May-06 16:59N 40°47' W 073°55'4 8.9
2017-May-06 16:30N 40°43' W 073°58'2 5.0
2017-May-06 16:00N 40°45' W 074°01'611.0
2017-May-06 15:30N 40°49' W 073°58'0 0.0
2017-May-06 15:00N 40°49' W 073°58'0 0.0
2017-May-06 14:29N 40°49' W 073°58'0 0.1
2017-May-06 13:30N 40°49' W 073°58'5 9.6
2017-May-06 13:00N 40°45' W 074°01'3 5.7
2017-May-06 12:30N 40°43' W 073°58'5 0.2
2017-May-05 14:00N 40°48' W 073°55'3 1.4
2017-May-05 11:40N 40°48' W 073°50'1 3.3
2017-May-05 11:30N 40°48' W 073°51'3 6.5
2017-May-05 11:00N 40°47' W 073°55'0 0.0
2017-May-04 22:06N 40°47' W 073°55'0 0.7
2017-May-04 22:00N 40°47' W 073°55'510.6
2017-May-04 21:31N 40°43' W 073°58'612.5
2017-May-04 21:00N 40°39' W 074°05'2 3.9
2017-May-04 20:30N 40°38' W 074°08'0 0.0
2017-May-04 20:00N 40°38' W 074°08'0 0.0
2017-May-04 19:30N 40°38' W 074°08'0 0.0
2017-May-04 19:00N 40°38' W 074°08'0 0.0
2017-May-04 18:30N 40°38' W 074°08'0 1.0
2017-May-04 18:00N 40°39' W 074°07'511.2
2017-May-04 17:31N 40°41' W 074°01'5 9.1
2017-May-04 17:00N 40°45' W 073°58'4 7.0
2017-May-04 16:29N 40°47' W 073°54'0 0.7
2017-May-04 16:00N 40°47' W 073°54'0 0.0
2017-May-04 15:30N 40°47' W 073°54'0 0.0
2017-May-04 15:00N 40°47' W 073°54'0 0.0
2017-May-04 14:00N 40°47' W 073°54'0 0.0
2017-May-04 13:29N 40°47' W 073°54'0 0.0
2017-May-04 13:00N 40°47' W 073°54'0 0.1
2017-May-04 12:30N 40°47' W 073°53'1 1.4
2017-May-04 11:32N 40°47' W 073°55'  

Dump ship's entire track history